Time;durP1;ratioP1;P1;durP2;ratioP2;P2;SDS_P1;SDS_P2;PMS_P1;PMS_P2;Temp;Humidity;BMP_temperature;BMP_pressure;BME280_temperature;BME280_humidity;BME280_pressure;Samples;Min_cycle;Max_cycle;Signal;HPM_P1;HPM_P2
2023/01/07 00:01:35;;;;;;;8.77;7.88;;;;;;;9.21;100.00;101553.38;5042835;28;20083;-82
2023/01/07 00:04:05;;;;;;;10.90;8.18;;;;;;;9.14;100.00;101560.72;5015788;28;20045;-82
2023/01/07 00:06:58;;;;;;;12.27;8.52;;;;;;;9.15;100.00;101551.06;5031199;28;20462;-82
2023/01/07 00:09:23;;;;;;;10.40;8.10;;;;;;;9.12;100.00;101549.47;5032116;28;20437;-82
2023/01/07 00:11:52;;;;;;;10.50;8.60;;;;;;;9.11;100.00;101558.28;5045255;28;20049;-81
2023/01/07 00:14:20;;;;;;;9.68;8.60;;;;;;;9.13;100.00;101547.69;5036441;28;20401;-82
2023/01/07 00:16:45;;;;;;;10.88;8.15;;;;;;;9.11;100.00;101542.53;5037127;28;20046;-82
2023/01/07 00:19:13;;;;;;;10.90;9.23;;;;;;;9.13;100.00;101543.28;5032647;28;20389;-82
2023/01/07 00:21:39;;;;;;;9.50;8.23;;;;;;;9.11;100.00;101548.63;5049813;28;20036;-82
2023/01/07 00:24:05;;;;;;;11.65;9.30;;;;;;;9.12;100.00;101544.22;5040828;28;20033;-82
2023/01/07 00:26:36;;;;;;;12.13;9.98;;;;;;;9.10;100.00;101546.94;5041209;28;20095;-82
2023/01/07 00:29:05;;;;;;;11.05;9.90;;;;;;;9.13;100.00;101539.81;5050392;28;20029;-82
2023/01/07 00:31:36;;;;;;;11.63;10.43;;;;;;;9.11;100.00;101534.66;5029579;28;20087;-82
2023/01/07 00:34:06;;;;;;;12.75;11.35;;;;;;;9.12;100.00;101533.72;5039517;28;20033;-82
2023/01/07 00:38:00;;;;;;;14.63;11.55;;;;;;;9.15;100.00;101525.66;5036103;28;20053;-82
2023/01/07 00:40:31;;;;;;;13.52;12.02;;;;;;;9.12;100.00;101517.97;5031148;28;20037;-81
2023/01/07 00:43:00;;;;;;;13.75;12.25;;;;;;;9.07;100.00;101522.63;5047903;28;20086;-82
2023/01/07 00:45:40;;;;;;;15.48;12.95;;;;;;;9.09;100.00;101519.00;5068231;28;20469;-82
2023/01/07 00:48:09;;;;;;;17.42;13.60;;;;;;;9.06;100.00;101515.69;5025142;28;20235;-81
2023/01/07 00:50:36;;;;;;;17.60;13.48;;;;;;;9.09;100.00;101518.13;5010337;28;20549;-81
2023/01/07 00:53:05;;;;;;;17.05;13.77;;;;;;;9.11;100.00;101511.03;5004779;28;20069;-82
2023/01/07 00:55:34;;;;;;;17.77;13.95;;;;;;;9.12;100.00;101507.47;5003781;28;20049;-81
2023/01/07 00:57:59;;;;;;;15.73;13.88;;;;;;;9.11;100.00;101511.03;5012611;28;20569;-81
2023/01/07 01:00:31;;;;;;;15.98;12.77;;;;;;;9.13;100.00;101505.69;5021548;28;20038;-80
2023/01/07 01:02:58;;;;;;;16.20;12.65;;;;;;;9.13;100.00;101497.81;5011885;28;20517;-80
2023/01/07 01:05:24;;;;;;;15.65;11.93;;;;;;;9.11;100.00;101496.13;5023397;28;20041;-82
2023/01/07 01:07:50;;;;;;;14.68;11.98;;;;;;;9.09;100.00;101486.63;5023270;28;20038;-80
2023/01/07 01:10:24;;;;;;;15.32;12.27;;;;;;;9.08;100.00;101487.56;5005755;28;20506;-80
2023/01/07 01:12:49;;;;;;;14.73;11.60;;;;;;;9.06;100.00;101481.56;5006759;28;20073;-80
2023/01/07 01:15:22;;;;;;;13.48;11.20;;;;;;;9.07;100.00;101483.25;5006319;28;20061;-82
2023/01/07 01:17:50;;;;;;;14.05;11.20;;;;;;;9.04;100.00;101484.28;5025445;28;20037;-81
2023/01/07 01:20:34;;;;;;;14.98;11.32;;;;;;;9.04;100.00;101478.19;5067496;28;20115;-81
2023/01/07 01:22:59;;;;;;;17.00;11.35;;;;;;;9.03;100.00;101471.25;5068313;28;20097;-81
2023/01/07 01:25:31;;;;;;;12.88;10.77;;;;;;;9.03;100.00;101469.47;5049771;28;20036;-81
2023/01/07 01:28:15;;;;;;;13.52;10.10;;;;;;;9.05;100.00;101464.13;5043808;28;20107;-81
2023/01/07 01:30:40;;;;;;;13.52;10.35;;;;;;;9.03;100.00;101466.84;5047065;28;20047;-81
2023/01/07 01:33:09;;;;;;;12.70;10.55;;;;;;;8.99;100.00;101472.38;5050374;28;20045;-81
2023/01/07 01:35:38;;;;;;;10.88;9.73;;;;;;;8.99;100.00;101461.88;5061204;28;20043;-81
2023/01/07 01:38:07;;;;;;;12.60;9.57;;;;;;;8.99;100.00;101461.88;5049330;28;20564;-81
2023/01/07 01:40:32;;;;;;;13.82;9.25;;;;;;;8.95;100.00;101458.56;5048542;28;20041;-81
2023/01/07 01:42:58;;;;;;;12.90;10.00;;;;;;;8.95;100.00;101463.81;5058133;28;20043;-81
2023/01/07 01:45:24;;;;;;;11.73;9.55;;;;;;;8.94;100.00;101456.03;5047447;28;20033;-81
2023/01/07 01:48:29;;;;;;;12.70;9.45;;;;;;;8.96;100.00;101464.66;5044237;28;20063;-82
2023/01/07 01:50:55;;;;;;;13.20;10.13;;;;;;;8.96;100.00;101462.03;5010430;28;20192;-81
2023/01/07 01:53:30;;;;;;;17.75;9.88;;;;;;;8.94;100.00;101466.53;5030049;28;20120;-81
2023/01/07 01:56:14;;;;;;;13.20;9.68;;;;;;;8.95;100.00;101458.56;5054829;28;20047;-81
2023/01/07 01:58:59;;;;;;;11.98;9.02;;;;;;;8.96;100.00;101465.50;5047480;28;20552;-81
2023/01/07 02:01:28;;;;;;;12.35;9.07;;;;;;;8.96;100.00;101465.50;5013448;28;20037;-82
2023/01/07 02:03:56;;;;;;;13.90;9.55;;;;;;;8.95;100.00;101458.56;5024872;28;20049;-82
2023/01/07 02:06:35;;;;;;;11.73;9.40;;;;;;;8.98;100.00;101470.66;5002043;28;20096;-81
2023/01/07 02:09:29;;;;;;;13.50;8.98;;;;;;;8.96;100.00;101464.66;4990902;28;20038;-81
2023/01/07 02:12:19;;;;;;;13.55;8.43;;;;;;;8.93;100.00;101464.84;4989524;28;20161;-81
2023/01/07 02:15:20;;;;;;;12.80;8.75;;;;;;;8.94;100.00;101463.91;4992017;28;20065;-81
2023/01/07 02:18:04;;;;;;;11.80;8.52;;;;;;;8.91;100.00;101464.94;4984567;28;20057;-81
2023/01/07 02:21:06;;;;;;;14.10;8.88;;;;;;;8.93;100.00;101462.22;5003412;28;20042;-81
2023/01/07 02:23:59;;;;;;;12.00;8.73;;;;;;;8.92;100.00;101458.75;4993517;28;20155;-81
2023/01/07 02:26:46;;;;;;;10.00;8.50;;;;;;;8.88;100.00;101461.63;5009573;28;20041;-81
2023/01/07 02:30:11;;;;;;;11.35;8.15;;;;;;;8.90;100.00;101454.53;5000210;28;20038;-81
2023/01/07 02:32:58;;;;;;;11.60;8.02;;;;;;;8.89;100.00;101458.09;5001210;28;20094;-81
2023/01/07 02:36:03;;;;;;;10.40;7.97;;;;;;;8.87;100.00;101457.31;5009908;28;20513;-81
2023/01/07 02:38:41;;;;;;;11.25;8.00;;;;;;;8.84;100.00;101463.59;5006026;28;20082;-81
2023/01/07 02:41:37;;;;;;;11.20;7.75;;;;;;;8.86;100.00;101448.59;4992986;28;20038;-81
2023/01/07 02:44:56;;;;;;;11.07;7.63;;;;;;;8.88;100.00;101445.91;5012189;28;20073;-81
2023/01/07 02:47:37;;;;;;;12.15;8.18;;;;;;;8.85;100.00;101446.91;5007954;28;20068;-81
2023/01/07 02:50:08;;;;;;;8.80;7.70;;;;;;;8.85;100.00;101440.81;5050131;28;20036;-81
2023/01/07 02:52:35;;;;;;;8.90;7.85;;;;;;;8.84;100.00;101436.50;5029438;28;20239;-81
2023/01/07 02:55:23;;;;;;;11.35;7.68;;;;;;;8.87;100.00;101442.44;5013051;28;20044;-81
2023/01/07 02:58:14;;;;;;;11.18;7.50;;;;;;;8.90;100.00;101444.03;5025684;28;20029;-82
2023/01/07 03:01:10;;;;;;;12.85;7.45;;;;;;;8.93;100.00;101441.22;5029894;28;20112;-81
2023/01/07 03:03:36;;;;;;;10.00;7.00;;;;;;;8.94;100.00;101438.50;5036644;28;20037;-81
2023/01/07 03:06:20;;;;;;;10.45;6.97;;;;;;;8.98;100.00;101436.56;5045677;28;20308;-81
2023/01/07 03:09:16;;;;;;;8.45;6.15;;;;;;;9.01;100.00;101431.13;5031260;28;20029;-81
2023/01/07 03:12:15;;;;;;;8.77;6.20;;;;;;;9.05;100.00;101424.75;5027983;28;20041;-81
2023/01/07 03:14:57;;;;;;;7.13;5.70;;;;;;;9.06;100.00;101414.16;5030435;28;20038;-82
2023/01/07 03:17:47;;;;;;;10.18;6.40;;;;;;;9.11;100.00;101417.38;5013152;28;20513;-82
2023/01/07 03:20:15;;;;;;;7.05;6.30;;;;;;;9.10;100.00;101420.94;5033006;28;20041;-82
2023/01/07 03:22:43;;;;;;;8.95;5.90;;;;;;;9.12;100.00;101410.34;5029594;28;20037;-82
2023/01/07 03:25:11;;;;;;;8.73;5.90;;;;;;;9.12;100.00;101402.47;5030979;28;20481;-82
2023/01/07 03:27:47;;;;;;;10.43;5.38;;;;;;;9.16;100.00;101403.13;5028016;28;20518;-82
2023/01/07 03:30:36;;;;;;;7.03;5.45;;;;;;;9.16;100.00;101398.72;5034499;28;20056;-82
2023/01/07 03:33:10;;;;;;;10.43;5.30;;;;;;;9.18;100.00;101391.59;5040937;28;20450;-82
2023/01/07 03:35:39;;;;;;;8.15;5.20;;;;;;;9.19;100.00;101393.28;5013677;28;20040;-82
2023/01/07 03:38:19;;;;;;;9.35;5.22;;;;;;;9.18;100.00;101404.72;5068880;28;20087;-82
2023/01/07 03:40:45;;;;;;;8.25;4.70;;;;;;;9.18;100.00;101394.22;5043518;28;20069;-82
2023/01/07 03:43:20;;;;;;;8.38;5.32;;;;;;;9.18;100.00;101402.09;5050720;28;20139;-81
2023/01/07 03:45:47;;;;;;;6.80;5.03;;;;;;;9.20;100.00;101392.34;5036639;28;20132;-82
2023/01/07 03:48:12;;;;;;;8.40;4.60;;;;;;;9.22;100.00;101387.88;5058233;28;20136;-82
2023/01/07 03:50:44;;;;;;;7.00;4.72;;;;;;;9.25;100.00;101384.22;5068263;28;20064;-82
2023/01/07 03:53:15;;;;;;;6.82;4.30;;;;;;;9.25;100.00;101377.19;5033215;28;20393;-82
2023/01/07 03:55:59;;;;;;;6.07;4.78;;;;;;;9.26;100.00;101378.88;5049475;28;20127;-82
2023/01/07 04:01:10;;;;;;;7.05;4.13;;;;;;;9.29;100.00;101376.06;5060110;28;20056;-81
2023/01/07 04:03:39;;;;;;;6.00;4.53;;;;;;;9.30;100.00;101375.13;5033661;28;20032;-82
2023/01/07 04:06:04;;;;;;;6.78;4.43;;;;;;;9.28;100.00;101377.00;5066477;28;20119;-81
2023/01/07 04:08:56;;;;;;;6.15;4.25;;;;;;;9.29;100.00;101368.19;5068514;28;20033;-81
2023/01/07 04:11:21;;;;;;;6.10;4.30;;;;;;;9.30;100.00;101354.13;5065580;28;20036;-82
2023/01/07 04:13:52;;;;;;;9.40;4.40;;;;;;;9.32;100.00;101360.13;5069901;28;20024;-82
2023/01/07 04:16:19;;;;;;;5.53;3.95;;;;;;;9.31;100.00;101350.56;5051017;28;20124;-81
2023/01/07 04:18:44;;;;;;;7.38;4.07;;;;;;;9.35;100.00;101345.97;5042617;28;20040;-82
2023/01/07 04:21:09;;;;;;;4.65;3.85;;;;;;;9.35;100.00;101346.81;5030223;28;20486;-83
2023/01/07 04:23:35;;;;;;;6.05;3.90;;;;;;;9.35;100.00;101341.56;5038883;28;20641;-83
2023/01/07 04:26:00;;;;;;;10.23;4.00;;;;;;;9.35;100.00;101340.72;5028977;28;20030;-81
2023/01/07 04:29:03;;;;;;;8.00;3.80;;;;;;;9.33;100.00;101332.91;5064196;28;20087;-82
2023/01/07 04:31:38;;;;;;;;;;;;;;;9.38;100.00;101330.84;5064699;28;20052;-81
2023/01/07 04:34:06;;;;;;;6.57;3.50;;;;;;;9.26;100.00;101326.38;5061488;28;19952;-82
2023/01/07 04:36:32;;;;;;;5.43;3.67;;;;;;;9.22;100.00;101319.63;5035929;28;20078;-81
2023/01/07 04:39:07;;;;;;;4.15;3.53;;;;;;;9.24;100.00;101323.00;5053681;28;20044;-82
2023/01/07 04:41:32;;;;;;;5.88;3.85;;;;;;;9.19;100.00;101319.75;5052627;28;20037;-81
2023/01/07 04:44:21;;;;;;;5.57;3.78;;;;;;;9.20;100.00;101312.72;5059262;28;20503;-82
2023/01/07 04:46:46;;;;;;;6.82;3.80;;;;;;;9.14;100.00;101313.09;5041492;28;20041;-81
2023/01/07 04:49:12;;;;;;;4.90;3.63;;;;;;;9.14;100.00;101305.22;5049302;28;20461;-81
2023/01/07 04:51:37;;;;;;;4.93;3.47;;;;;;;9.11;100.00;101307.09;5048050;28;20442;-81
2023/01/07 04:54:03;;;;;;;5.95;3.70;;;;;;;9.09;100.00;101300.25;5052825;28;20509;-81
2023/01/07 04:56:28;;;;;;;5.43;3.50;;;;;;;9.08;100.00;101306.44;5047599;28;20043;-81
2023/01/07 04:59:06;;;;;;;4.55;3.22;;;;;;;9.09;100.00;101303.75;5049315;28;20104;-81
2023/01/07 05:01:31;;;;;;;4.63;3.30;;;;;;;9.07;100.00;101300.34;5048917;28;20071;-81
2023/01/07 05:04:12;;;;;;;7.80;3.50;;;;;;;9.05;100.00;101302.25;5052152;28;20033;-81
2023/01/07 05:06:38;;;;;;;5.57;3.25;;;;;;;9.05;100.00;101289.09;5049248;28;20561;-81
2023/01/07 05:09:06;;;;;;;5.00;3.40;;;;;;;9.05;100.00;101296.13;5059672;28;20072;-81
2023/01/07 05:11:32;;;;;;;5.35;3.40;;;;;;;9.01;100.00;101305.97;5045234;28;20053;-81
2023/01/07 05:13:59;;;;;;;5.72;3.40;;;;;;;9.00;100.00;101300.81;5068023;28;20036;-81
2023/01/07 05:16:25;;;;;;;6.13;3.40;;;;;;;8.97;100.00;101293.13;5069162;28;20087;-81
2023/01/07 05:18:50;;;;;;;6.03;3.15;;;;;;;8.96;100.00;101300.16;5054618;28;20024;-81
2023/01/07 05:21:24;;;;;;;4.45;3.00;;;;;;;8.94;100.00;101283.66;5068731;28;20045;-81
2023/01/07 05:23:56;;;;;;;4.65;3.38;;;;;;;8.92;100.00;101284.69;5066633;28;20033;-81
2023/01/07 05:26:21;;;;;;;5.72;3.25;;;;;;;8.92;100.00;101284.69;5069045;28;20029;-81
2023/01/07 05:28:47;;;;;;;8.35;3.08;;;;;;;8.92;100.00;101282.06;5060053;28;20029;-81
2023/01/07 05:31:12;;;;;;;6.05;2.70;;;;;;;8.90;100.00;101276.09;5056178;28;20025;-81
2023/01/07 05:33:37;;;;;;;5.07;3.33;;;;;;;8.92;100.00;101279.44;5062805;28;20047;-81
2023/01/07 05:36:03;;;;;;;5.03;2.80;;;;;;;8.90;100.00;101282.16;5054865;28;20039;-81
2023/01/07 05:38:28;;;;;;;4.38;2.85;;;;;;;8.93;100.00;101281.16;5050819;28;20116;-81
2023/01/07 05:40:54;;;;;;;3.70;2.70;;;;;;;8.93;100.00;101282.00;5052196;28;20096;-81
2023/01/07 05:43:20;;;;;;;5.47;2.80;;;;;;;8.95;100.00;101285.34;5051022;28;20033;-80
2023/01/07 05:45:46;;;;;;;6.13;2.70;;;;;;;8.99;100.00;101286.03;5054237;28;20029;-81
2023/01/07 05:48:13;;;;;;;5.55;2.80;;;;;;;9.00;100.00;101282.47;5055422;28;20041;-81
2023/01/07 05:50:39;;;;;;;3.33;2.50;;;;;;;9.03;100.00;101279.66;5048687;28;20092;-81
2023/01/07 05:53:07;;;;;;;4.78;2.50;;;;;;;9.01;100.00;101274.50;5052478;28;20126;-81
2023/01/07 05:55:32;;;;;;;5.15;2.45;;;;;;;9.04;100.00;101268.22;5061976;28;20040;-81
2023/01/07 05:58:26;;;;;;;3.85;2.30;;;;;;;9.03;100.00;101264.75;5053542;28;20504;-81
2023/01/07 06:00:51;;;;;;;5.63;2.25;;;;;;;9.05;100.00;101267.28;5044815;28;20032;-81
2023/01/07 06:03:16;;;;;;;4.78;2.35;;;;;;;9.05;100.00;101273.38;5072476;28;20029;-81
2023/01/07 06:05:42;;;;;;;3.28;2.40;;;;;;;9.08;100.00;101261.84;5066700;28;20119;-81
2023/01/07 06:08:08;;;;;;;4.78;2.25;;;;;;;9.08;100.00;101254.78;5049895;28;20319;-81
2023/01/07 06:10:34;;;;;;;4.85;2.50;;;;;;;9.10;100.00;101262.56;5068827;28;20082;-81
2023/01/07 06:13:00;;;;;;;4.30;2.30;;;;;;;9.11;100.00;101264.28;5064229;28;20047;-81
2023/01/07 06:15:26;;;;;;;3.58;1.92;;;;;;;9.12;100.00;101260.69;5072892;28;20036;-81
2023/01/07 06:18:11;;;;;;;3.20;1.80;;;;;;;9.11;100.00;101259.84;5072151;28;20040;-81
2023/01/07 06:20:36;;;;;;;3.75;2.00;;;;;;;9.13;100.00;101257.13;5055090;28;20369;-81
2023/01/07 06:23:31;;;;;;;3.83;2.20;;;;;;;9.12;100.00;101239.69;5053635;28;20132;-81
2023/01/07 06:25:57;;;;;;;3.60;1.77;;;;;;;9.11;100.00;101245.88;4970836;28;20134;-81
2023/01/07 06:28:22;;;;;;;6.72;2.17;;;;;;;9.11;100.00;101238.84;5054853;28;20036;-81
2023/01/07 06:30:47;;;;;;;3.53;1.90;;;;;;;9.08;100.00;101233.81;5072345;28;20043;-81
2023/01/07 06:33:51;;;;;;;4.75;2.20;;;;;;;9.13;100.00;101230.88;5071892;28;20102;-81
2023/01/07 06:36:23;;;;;;;2.83;1.92;;;;;;;9.10;100.00;101229.28;5035843;28;20037;-82
2023/01/07 06:38:48;;;;;;;4.18;1.95;;;;;;;9.10;100.00;101225.84;5071522;28;20414;-81
2023/01/07 06:41:14;;;;;;;3.03;1.70;;;;;;;9.10;100.00;101231.91;5052635;28;20127;-81
2023/01/07 06:44:03;;;;;;;2.67;1.80;;;;;;;9.11;100.00;101222.28;5021383;28;20040;-81
2023/01/07 06:46:34;;;;;;;2.35;1.80;;;;;;;9.10;100.00;101223.22;5050791;28;20295;-81
2023/01/07 06:49:00;;;;;;;3.10;1.38;;;;;;;9.10;100.00;101223.22;5051581;28;20075;-82
2023/01/07 06:51:31;;;;;;;3.55;1.60;;;;;;;9.13;100.00;101228.25;5045970;28;20064;-82
2023/01/07 06:53:57;;;;;;;4.28;1.40;;;;;;;9.12;100.00;101213.44;5065135;28;20044;-82
2023/01/07 06:56:30;;;;;;;2.75;1.75;;;;;;;9.12;100.00;101223.94;5058575;28;20040;-82
2023/01/07 06:58:55;;;;;;;2.88;1.60;;;;;;;9.11;100.00;101211.75;5049241;28;20049;-82
2023/01/07 07:01:21;;;;;;;2.08;1.48;;;;;;;9.14;100.00;101211.56;5056685;28;20095;-82
2023/01/07 07:04:04;;;;;;;1.70;1.38;;;;;;;9.16;100.00;101216.72;5049545;28;20044;-82
2023/01/07 07:06:57;;;;;;;1.98;1.38;;;;;;;9.14;100.00;101216.81;5048523;28;20052;-82
2023/01/07 07:09:45;;;;;;;2.45;1.38;;;;;;;9.11;100.00;101203.88;5050978;28;20606;-82
2023/01/07 07:12:11;;;;;;;2.50;1.30;;;;;;;9.10;100.00;101194.34;5057940;28;20051;-81
2023/01/07 07:14:43;;;;;;;3.25;1.65;;;;;;;9.11;100.00;101193.41;5038017;28;20469;-82
2023/01/07 07:17:08;;;;;;;2.85;1.30;;;;;;;9.10;100.00;101194.34;5048563;28;20108;-82
2023/01/07 07:19:34;;;;;;;4.53;1.35;;;;;;;9.10;100.00;101192.56;5047144;28;20033;-82
2023/01/07 07:21:59;;;;;;;3.78;1.50;;;;;;;9.09;100.00;101187.41;5046829;28;20167;-82
2023/01/07 07:24:48;;;;;;;2.65;1.25;;;;;;;9.10;100.00;101189.09;5052146;28;20063;-82
2023/01/07 07:27:14;;;;;;;2.35;1.40;;;;;;;9.05;100.00;101181.50;5049775;28;20071;-82
2023/01/07 07:29:42;;;;;;;3.55;1.60;;;;;;;9.07;100.00;101191.91;5063148;28;20036;-82
2023/01/07 07:32:10;;;;;;;1.63;1.30;;;;;;;9.07;100.00;101184.03;5062881;28;20123;-82
2023/01/07 07:34:39;;;;;;;2.83;1.40;;;;;;;9.07;100.00;101186.66;5029045;28;20065;-81
2023/01/07 07:37:05;;;;;;;2.65;1.60;;;;;;;9.05;100.00;101185.91;5050578;28;20514;-80
2023/01/07 07:39:36;;;;;;;2.42;1.33;;;;;;;9.03;100.00;101175.50;5059864;28;20691;-81
2023/01/07 07:42:19;;;;;;;3.22;1.73;;;;;;;9.05;100.00;101180.66;5032116;28;20148;-82
2023/01/07 07:45:04;;;;;;;3.08;1.60;;;;;;;9.04;100.00;101176.34;5067778;28;20039;-82
2023/01/07 07:47:54;;;;;;;3.50;1.70;;;;;;;9.08;100.00;101169.97;5061182;28;20381;-82
2023/01/07 07:50:20;;;;;;;3.75;1.40;;;;;;;9.05;99.79;101164.91;5045299;28;20037;-82
2023/01/07 07:52:52;;;;;;;3.40;1.33;;;;;;;9.05;99.93;101159.66;5049786;28;20048;-81
2023/01/07 07:55:20;;;;;;;4.32;1.55;;;;;;;9.04;99.90;101158.81;5046896;28;20061;-81
2023/01/07 07:57:45;;;;;;;2.75;1.35;;;;;;;9.06;99.63;101156.94;5050089;28;20124;-81
2023/01/07 08:00:12;;;;;;;3.35;1.70;;;;;;;9.05;99.31;101159.66;5049272;28;20123;-82
2023/01/07 08:02:38;;;;;;;3.70;1.40;;;;;;;9.06;98.81;101156.09;5046777;28;20127;-82
2023/01/07 08:05:04;;;;;;;3.70;1.70;;;;;;;9.06;99.42;101145.59;5066990;28;20074;-82
2023/01/07 08:07:30;;;;;;;4.07;1.50;;;;;;;9.05;98.85;101146.53;5052356;28;20032;-82
2023/01/07 08:09:56;;;;;;;3.35;1.60;;;;;;;9.06;98.66;101150.84;5069608;28;20032;-81
2023/01/07 08:13:05;;;;;;;1.40;1.20;;;;;;;9.11;98.76;101148.78;5066503;28;20035;-81
2023/01/07 08:15:30;;;;;;;1.90;1.55;;;;;;;9.09;98.61;101145.41;5048514;28;20044;-81
2023/01/07 08:18:01;;;;;;;4.60;1.63;;;;;;;9.14;97.93;101148.56;5067397;28;20047;-81
2023/01/07 08:20:33;;;;;;;1.50;1.40;;;;;;;9.16;97.74;101146.69;5067439;28;20491;-81
2023/01/07 08:23:08;;;;;;;2.95;1.55;;;;;;;9.16;98.24;101141.44;5046190;28;20040;-81
2023/01/07 08:25:34;;;;;;;2.33;1.60;;;;;;;9.17;97.78;101142.28;5044386;28;20029;-81
2023/01/07 08:28:00;;;;;;;1.83;1.20;;;;;;;9.21;97.59;101136.78;5050080;28;20032;-82
2023/01/07 08:30:35;;;;;;;3.85;1.50;;;;;;;9.23;97.37;101140.13;5047957;28;20067;-81
2023/01/07 08:33:27;;;;;;;2.00;1.40;;;;;;;9.27;97.01;101133.75;5046254;28;20091;-82
2023/01/07 08:35:58;;;;;;;1.30;1.20;;;;;;;9.29;96.18;101137.13;5049834;28;20076;-82
2023/01/07 08:38:26;;;;;;;2.67;1.40;;;;;;;9.29;96.06;101121.38;5036709;28;20037;-82
2023/01/07 08:40:51;;;;;;;3.53;1.58;;;;;;;9.32;95.83;101123.78;5021105;28;20045;-82
2023/01/07 08:43:17;;;;;;;2.13;1.40;;;;;;;9.32;95.72;101125.56;5030419;28;20029;-81
2023/01/07 08:45:52;;;;;;;4.10;1.50;;;;;;;9.37;95.85;101118.25;5047065;28;20095;-81
2023/01/07 08:48:23;;;;;;;1.85;1.35;;;;;;;9.36;95.00;101120.03;5049976;28;20025;-81
2023/01/07 08:50:58;;;;;;;1.92;1.27;;;;;;;9.38;94.60;101117.31;5044570;28;20075;-81
2023/01/07 08:53:24;;;;;;;2.05;1.42;;;;;;;9.42;94.34;101121.41;5030596;28;20033;-81
2023/01/07 08:55:50;;;;;;;2.38;1.40;;;;;;;9.39;94.78;101111.94;5034632;28;20052;-81
2023/01/07 08:58:31;;;;;;;2.42;1.50;;;;;;;9.47;94.49;101119.31;5030312;28;20449;-81
2023/01/07 09:01:06;;;;;;;1.77;1.30;;;;;;;9.47;93.84;101118.47;5046668;28;20041;-81
2023/01/07 09:03:31;;;;;;;2.60;1.42;;;;;;;9.49;93.66;101120.06;5031780;28;20092;-81
2023/01/07 09:06:04;;;;;;;1.88;1.20;;;;;;;9.48;93.06;101114.91;5046557;28;20437;-81
2023/01/07 09:09:05;;;;;;;1.98;1.50;;;;;;;9.50;93.91;101107.78;5027587;28;20033;-82
2023/01/07 09:11:31;;;;;;;2.67;1.40;;;;;;;9.52;93.37;101096.22;5025973;28;20438;-81
2023/01/07 09:13:56;;;;;;;4.05;1.50;;;;;;;9.57;92.89;101093.28;5026526;28;20044;-82
2023/01/07 09:16:21;;;;;;;2.13;1.40;;;;;;;9.60;92.26;101103.59;5031899;28;20051;-82
2023/01/07 09:18:47;;;;;;;2.40;1.20;;;;;;;9.64;92.13;101095.44;5031072;28;20025;-81
2023/01/07 09:21:13;;;;;;;4.15;1.10;;;;;;;9.64;91.58;101090.19;5045855;28;20393;-81
2023/01/07 09:23:39;;;;;;;2.65;1.30;;;;;;;9.66;91.54;101093.56;5046754;28;20211;-81
2023/01/07 09:26:11;;;;;;;3.10;1.25;;;;;;;9.68;91.23;101086.41;5046152;28;20595;-82
2023/01/07 09:28:36;;;;;;;2.25;1.23;;;;;;;9.70;90.52;101084.53;5062027;28;20045;-82
2023/01/07 09:31:03;;;;;;;1.95;1.25;;;;;;;9.73;90.78;101088.72;5050181;28;20043;-82
2023/01/07 09:33:29;;;;;;;1.38;1.00;;;;;;;9.78;89.97;101085.78;5068189;28;20098;-82
2023/01/07 09:35:56;;;;;;;2.90;1.20;;;;;;;9.80;89.88;101079.47;5054174;28;20037;-83
2023/01/07 09:38:22;;;;;;;2.90;0.90;;;;;;;9.81;89.81;101069.81;5055375;28;20431;-83
2023/01/07 09:40:52;;;;;;;2.20;1.02;;;;;;;9.85;89.44;101072.13;5055669;28;20489;-84
2023/01/07 09:43:32;;;;;;;1.80;1.00;;;;;;;9.89;88.69;101063.09;5069048;28;20039;-82
2023/01/07 09:46:04;;;;;;;1.33;0.90;;;;;;;9.93;88.42;101063.72;5036765;28;20033;-82
2023/01/07 09:48:34;;;;;;;1.05;0.85;;;;;;;9.98;86.94;101056.34;5047538;28;20029;-83
2023/01/07 09:51:05;;;;;;;3.88;1.25;;;;;;;10.01;87.58;101062.28;5046130;28;20051;-81
2023/01/07 09:53:50;;;;;;;3.13;0.97;;;;;;;10.09;87.33;101047.75;5052401;28;20048;-82
2023/01/07 09:56:38;;;;;;;1.30;0.90;;;;;;;10.14;87.53;101045.66;5044232;28;20048;-82
2023/01/07 09:59:05;;;;;;;1.27;0.90;;;;;;;10.18;85.97;101037.44;5065539;28;20123;-82
2023/01/07 10:02:09;;;;;;;3.03;1.02;;;;;;;10.24;86.69;101036.22;5047199;28;20889;-82
2023/01/07 10:05:30;;;;;;;1.10;0.93;;;;;;;10.26;85.71;101029.06;5017838;28;20032;-83
2023/01/07 10:08:28;;;;;;;1.92;0.90;;;;;;;10.30;86.00;101025.25;4956219;28;20046;-82
2023/01/07 10:11:21;;;;;;;2.75;1.00;;;;;;;10.34;85.35;101031.97;5049081;28;20041;-82
2023/01/07 10:17:54;;;;;;;2.40;1.00;;;;;;;10.45;85.37;101013.69;5037593;28;20044;-83
2023/01/07 10:21:24;;;;;;;1.42;0.80;;;;;;;10.44;84.83;100990.97;5042518;28;20040;-81
2023/01/07 10:24:35;;;;;;;1.55;1.20;;;;;;;10.49;84.26;100991.47;4955970;28;20039;-83
2023/01/07 10:27:06;;;;;;;1.70;1.10;;;;;;;10.50;83.02;100984.41;5004797;28;20399;-84
2023/01/07 10:29:49;;;;;;;2.10;0.93;;;;;;;10.53;82.61;100968.41;5058151;28;20167;-82
2023/01/07 10:32:20;;;;;;;1.65;0.95;;;;;;;10.56;81.69;100974.28;5054898;28;20309;-84
2023/01/07 10:34:55;;;;;;;1.77;0.90;;;;;;;10.60;82.11;100967.00;5055852;28;20037;-82
2023/01/07 10:37:42;;;;;;;1.83;1.00;;;;;;;10.66;83.44;100970.03;5063934;28;20077;-82
2023/01/07 10:40:41;;;;;;;2.53;1.02;;;;;;;10.70;83.34;100961.91;5071432;28;20082;-83
2023/01/07 10:43:47;;;;;;;2.05;0.88;;;;;;;10.73;82.12;100967.78;5068885;28;20404;-82
2023/01/07 10:46:50;;;;;;;1.98;1.00;;;;;;;10.78;82.01;100943.78;5048233;28;20579;-82
2023/01/07 10:49:35;;;;;;;2.50;1.00;;;;;;;10.78;79.68;100941.97;5057481;28;20095;-82
2023/01/07 10:52:31;;;;;;;2.03;0.82;;;;;;;10.79;79.74;100948.91;5058041;28;20389;-83
2023/01/07 10:55:24;;;;;;;0.85;0.80;;;;;;;10.78;79.75;100935.88;5050952;28;20051;-82
2023/01/07 10:57:50;;;;;;;1.13;0.88;;;;;;;10.79;78.26;100917.34;5056899;28;20391;-82
2023/01/07 11:00:44;;;;;;;1.60;1.05;;;;;;;10.82;79.14;100926.81;5053508;28;20064;-83
2023/01/07 11:03:39;;;;;;;2.50;1.10;;;;;;;10.91;80.12;100923.50;5044263;28;20032;-83
2023/01/07 11:06:17;;;;;;;1.70;1.00;;;;;;;10.83;77.80;100924.09;5035314;28;20155;-83
2023/01/07 11:08:48;;;;;;;1.95;0.80;;;;;;;10.81;78.11;100922.50;5051368;28;20167;-82
2023/01/07 11:11:25;;;;;;;1.90;0.90;;;;;;;10.83;77.99;100917.97;5051417;28;20532;-82
2023/01/07 11:13:58;;;;;;;2.38;1.05;;;;;;;10.86;77.11;100915.97;5033059;28;20592;-82
2023/01/07 11:16:30;;;;;;;1.58;0.88;;;;;;;10.89;77.36;100913.09;5033533;28;20032;-83
2023/01/07 11:19:08;;;;;;;3.10;1.00;;;;;;;10.93;77.17;100903.16;5050470;28;20487;-82
2023/01/07 11:21:45;;;;;;;1.48;1.10;;;;;;;10.93;78.19;100904.00;5049892;28;20040;-83
2023/01/07 11:24:33;;;;;;;1.50;0.90;;;;;;;10.97;77.90;100899.34;5051289;28;20041;-83
2023/01/07 11:27:16;;;;;;;1.27;1.00;;;;;;;10.94;77.70;100883.78;5033034;28;20041;-83
2023/01/07 11:29:56;;;;;;;1.10;1.00;;;;;;;10.92;75.83;100877.81;5033522;28;20037;-82
2023/01/07 11:32:39;;;;;;;1.30;1.17;;;;;;;10.93;75.24;100861.91;5049162;28;20033;-82
2023/01/07 11:35:32;;;;;;;1.63;1.00;;;;;;;10.90;75.76;100856.03;5064703;28;20481;-82
2023/01/07 11:37:59;;;;;;;2.03;1.10;;;;;;;10.90;74.37;100861.28;5064022;28;20084;-82
2023/01/07 11:40:31;;;;;;;2.17;1.30;;;;;;;10.89;75.13;100854.34;5051575;28;20036;-83
2023/01/07 11:43:06;;;;;;;1.42;1.00;;;;;;;10.92;75.19;100852.31;5067603;28;20124;-82
2023/01/07 11:45:55;;;;;;;1.45;1.05;;;;;;;10.91;75.73;100836.63;5036604;28;20448;-82
2023/01/07 11:48:44;;;;;;;2.13;1.10;;;;;;;10.94;75.87;100836.41;5052493;28;20040;-82
2023/01/07 11:51:13;;;;;;;2.03;1.30;;;;;;;10.95;75.68;100824.91;5061797;28;20091;-83
2023/01/07 11:53:47;;;;;;;1.30;1.20;;;;;;;10.99;75.46;100813.19;5045260;28;20040;-82
2023/01/07 11:56:49;;;;;;;1.65;1.30;;;;;;;11.02;77.15;100820.03;5043801;28;20115;-82
2023/01/07 12:00:14;;;;;;;1.38;1.15;;;;;;;11.01;76.40;100815.72;4955216;28;20051;-82
2023/01/07 12:02:42;;;;;;;1.80;1.30;;;;;;;11.02;74.59;100806.84;5056385;28;20072;-81
2023/01/07 12:05:38;;;;;;;2.53;1.20;;;;;;;11.06;75.54;100797.78;5015231;28;20033;-82
2023/01/07 12:08:04;;;;;;;1.90;1.40;;;;;;;11.05;73.66;100796.94;5046431;28;20497;-81
2023/01/07 12:10:36;;;;;;;2.53;1.52;;;;;;;11.04;72.89;100789.16;5029010;28;20065;-82